AirNav   Air Wisconsin Up To $57,000 Bonus
 
 649 users online  

93AZ Inde Motorsports Ranch Airport
Willcox, Arizona, USA

GOING TO WILLCOX?


FAA INFORMATION EFFECTIVE 07 NOVEMBER 2019

Location

FAA Identifier: 93AZ
Lat/Long: 32-13-28.7500N 110-00-28.1500W
32-13.479167N 110-00.469167W
32.2246528,-110.0078194
(estimated)
Elevation: 4463 ft. / 1360 m (estimated)
From city: 10 miles W of WILLCOX, AZ
Time zone: UTC -7 (year round; does not observe DST)
Zip code: 85643

Airport Operations

Airport use: Private use. Permission required prior to landing
Activation date: 03/2011
Control tower: no
ARTCC: ALBUQUERQUE CENTER
FSS: PRESCOTT FLIGHT SERVICE STATION
Attendance: 0800-1700
Wind indicator: yes
Segmented circle: no

Nearby radio navigation aids

VOR radial/distance  VOR name  Freq  Var
SSOr253/37.9SAN SIMON VORTAC115.4013E

Airport Services

Runway Information

Runway 8/26

Dimensions: 3800 x 60 ft. / 1158 x 18 m
Surface: asphalt
RUNWAY 8  RUNWAY 26
Traffic pattern: leftleft

Airport Ownership and Management from official FAA records

Ownership: Privately-owned
Owner: MOTORSPORTS RANCH
9301 W. AIRPORT ROAD
WILLCOX, AZ 85643
Phone 520-384-0796
Manager: JOHN MABRY
9301 W. AIRPORT ROAD
WILLCOX, AZ 85643
Phone 520-384-0796
JOHN MABRY

Airport Operational Statistics

Aircraft based on the field: 1
Multi engine airplanes: 1
    

Additional Remarks

FOR CD CTC ALBUQUERQUE ARTCC AT 505-856-4861.

Instrument Procedures

There are no published instrument procedures at 93AZ.

Some nearby airports with instrument procedures:

P33 - Cochise County Airport (6 nm E)
KFHU - Sierra Vista Municipal Airport-Libby Army Airfield (42 nm SW)
KSAD - Safford Regional Airport (42 nm NE)
KDMA - Davis Monthan Air Force Base (45 nm W)
KTUS - Tucson International Airport (48 nm W)
 
Loc | Ops | Rwys | IFR | FBO | Links
Com | Nav | Svcs | Stats | Notes
Aerial photo
No photo
 
Sectional chart

 
Airport distance calculator
Flying to Inde Motorsports Ranch Airport? Find the distance to fly.

From to 93AZ

Sunrise and sunset
Times for 19-Nov-2019
 Local
(UTC-7)
 Zulu
(UTC)
Morning civil twilight06:2813:28
Sunrise06:5413:54
Sunset17:1700:17
Evening civil twilight17:4300:43

Current date and time
Zulu (UTC)  20-Nov-2019 04:58:04
Local (UTC-7)  19-Nov-2019 21:58:04
 
METAR
KFHU 
41nm SW 
200443Z 27006KT 4SM -RA BR BKN006 OVC024 13/12 A2986 RMK AO2A CIG 004V006 BKN V OVC SLP052
KSAD 
42nm NE 
200451Z AUTO 00000KT 7SM -RA SCT034 BKN041 OVC080 11/11 A2983 RMK AO2 RAE26B37 SLP073 P0006 T01110106
KDMA 
44nm W 
200426Z 18005KT 10SM FEW005 FEW019 SCT024 BKN034 OVC045 17/15 A2976 RMK AO2A RAE24DZB24E26 SLP047 $
KTUS 
48nm W 
200453Z 20003KT 10SM FEW055 SCT085 17/14 A2977 RMK AO2 RAB05E20 SLP046 P0001 T01670144 $
TAF
KFHU 
41nm SW 
200202Z 2002/2108 10009KT 4800 -SHRA VCTS BKN004CB OVC010 QNH2988INS BECMG 2005/2006 21012G25KT 8000 -SHRA VCTS BKN010CB QNH2980INS BECMG 2011/2012 21025G35KT 9999 VCSH BKN015 530009 QNH2980INS BECMG 2102/2103 20030G40KT 4800 -SHRA BKN015 530009 QNH2984INS TX18/2021Z TN08/2012Z
KDMA 
44nm W 
1922/2104 VRB06KT 9999 VCSH SCT030 BKN060 OVC300 610808 621607 QNH2981INS TEMPO 1922/2006 6000 -SHRA BKN030 OVC060 640709 BECMG 2006/2007 19009KT 9999 VCSH SCT030 BKN070 OVC240 610708 621507 QNH2974INS TEMPO 2007/2012 20012G20KT 8000 -SHRA BKN030 OVC120 640609 BECMG 2012/2013 20012G21KT 9999 VCSH SCT030 BKN060 510006 610609 621506 QNH2973INS TEMPO 2013/2020 8000 -SHRA BKN030 OVC060 640656 BECMG 2020/2021 20018G27KT 9000 -SHRA BKN030 510006 610606 TX18/1922Z TN13/2012Z
KTUS 
48nm W 
200258Z 2003/2024 14010KT P6SM VCSH SCT035 OVC060 TEMPO 2003/2004 5SM -SHRA BR BKN025 FM200800 20015KT P6SM VCSH BKN025
NOTAMs
Click for the latest NOTAMs
NOTAMs are issued by the DoD/FAA and will open in a separate window not controlled by AirNav.

 

 
 

Would you like to see your business listed on this page?

 If your business provides an interesting product or service to pilots, flight crews, aircraft, or users of the Inde Motorsports Ranch Airport, you should consider listing it here.  To start the listing process, click on the button below
 
Add a business
 

Other Pages about Inde Motorsports Ranch Airport

Update a link
 
Copyright © AirNav, LLC. All rights reserved. Privacy Policy  Contact